Time;durP1;ratioP1;P1;durP2;ratioP2;P2;SDS_P1;SDS_P2;PMS_P1;PMS_P2;Temp;Humidity;BMP_temperature;BMP_pressure;BME280_temperature;BME280_humidity;BME280_pressure;Samples;Min_cycle;Max_cycle;Signal;HPM_P1;HPM_P2
2022/03/27 00:00:15;;;;;;;27.05;8.18;;;4.10;99.90;;;;;;4991097;28;20023;-79
2022/03/27 00:02:43;;;;;;;21.10;9.23;;;4.10;99.90;;;;;;4991778;28;20033;-79
2022/03/27 00:05:10;;;;;;;25.50;9.68;;;4.00;99.90;;;;;;4992636;28;20022;-79
2022/03/27 00:07:35;;;;;;;20.15;8.43;;;4.10;99.90;;;;;;4992060;28;20082;-78
2022/03/27 00:10:02;;;;;;;23.92;10.57;;;4.10;99.90;;;;;;4994218;28;20014;-78
2022/03/27 00:12:27;;;;;;;19.52;8.90;;;4.00;99.90;;;;;;4991530;28;20047;-78
2022/03/27 00:14:53;;;;;;;24.70;9.73;;;3.90;99.90;;;;;;4991350;28;20027;-78
2022/03/27 00:17:19;;;;;;;29.67;9.52;;;3.90;99.90;;;;;;4993524;28;20041;-78
2022/03/27 00:19:45;;;;;;;24.95;7.95;;;3.90;99.90;;;;;;4995132;28;20026;-78
2022/03/27 00:22:10;;;;;;;21.17;8.70;;;4.00;99.90;;;;;;4993762;28;20039;-78
2022/03/27 00:24:36;;;;;;;20.30;8.32;;;3.90;99.90;;;;;;4990047;28;20085;-78
2022/03/27 00:27:02;;;;;;;23.92;9.68;;;3.80;99.90;;;;;;4990910;28;20034;-81
2022/03/27 00:29:28;;;;;;;21.08;8.48;;;3.60;99.90;;;;;;4995075;28;20007;-81
2022/03/27 00:31:54;;;;;;;24.13;9.75;;;3.50;99.90;;;;;;4996374;28;20015;-80
2022/03/27 00:34:21;;;;;;;28.30;10.18;;;3.40;99.90;;;;;;4996518;28;20045;-82
2022/03/27 00:36:48;;;;;;;23.73;9.32;;;3.30;99.90;;;;;;4998394;28;20011;-83
2022/03/27 00:39:14;;;;;;;22.13;9.07;;;3.20;99.90;;;;;;4996842;28;20058;-80
2022/03/27 00:41:40;;;;;;;19.67;8.40;;;3.20;99.90;;;;;;4993418;28;20023;-78
2022/03/27 00:44:06;;;;;;;21.80;8.50;;;3.20;99.90;;;;;;4994727;28;20046;-78
2022/03/27 00:46:32;;;;;;;19.92;8.68;;;3.20;99.90;;;;;;4992908;28;20030;-78
2022/03/27 00:48:57;;;;;;;18.70;7.60;;;3.00;99.90;;;;;;4991707;28;20222;-79
2022/03/27 00:51:23;;;;;;;21.00;8.02;;;3.00;99.90;;;;;;4991537;28;20054;-79
2022/03/27 00:53:49;;;;;;;18.77;8.70;;;3.10;99.90;;;;;;4990782;28;20426;-78
2022/03/27 00:56:15;;;;;;;23.50;8.25;;;3.10;99.90;;;;;;4990662;28;20031;-80
2022/03/27 00:58:40;;;;;;;14.95;8.18;;;3.10;99.90;;;;;;4990821;28;20045;-79
2022/03/27 01:01:12;;;;;;;19.08;7.35;;;3.10;99.90;;;;;;4991551;28;20475;-78
2022/03/27 01:03:38;;;;;;;16.63;6.85;;;3.00;99.90;;;;;;4991560;28;20034;-80
2022/03/27 01:06:16;;;;;;;19.10;7.88;;;2.80;99.90;;;;;;4993172;28;20027;-78
2022/03/27 01:11:31;;;;;;;22.58;8.10;;;2.90;99.90;;;;;;4992513;28;20209;-79
2022/03/27 01:13:58;;;;;;;19.58;7.53;;;3.00;99.90;;;;;;4992632;28;20567;-81
2022/03/27 01:16:38;;;;;;;17.10;7.95;;;2.90;99.90;;;;;;4991361;28;20029;-78
2022/03/27 01:19:06;;;;;;;19.23;7.78;;;2.80;99.90;;;;;;4990545;28;20031;-80
2022/03/27 01:21:41;;;;;;;28.00;10.25;;;2.80;99.90;;;;;;4990250;28;20007;-78
2022/03/27 01:24:07;;;;;;;21.73;7.70;;;2.80;99.90;;;;;;4991826;28;20046;-79
2022/03/27 01:26:34;;;;;;;26.63;9.10;;;2.80;99.90;;;;;;4991006;28;20038;-77
2022/03/27 01:29:00;;;;;;;17.65;6.78;;;2.80;99.90;;;;;;4991050;28;20026;-77
2022/03/27 01:31:26;;;;;;;16.10;6.78;;;2.70;99.90;;;;;;4991591;28;20151;-79
2022/03/27 01:33:52;;;;;;;17.15;7.15;;;2.70;99.90;;;;;;4991262;28;20035;-78
2022/03/27 01:36:26;;;;;;;18.23;7.28;;;2.70;99.90;;;;;;4990729;28;20031;-79
2022/03/27 01:38:53;;;;;;;16.50;7.13;;;2.70;99.90;;;;;;4990384;28;20035;-78
2022/03/27 01:41:19;;;;;;;20.85;7.10;;;2.60;99.90;;;;;;4990389;28;20070;-77
2022/03/27 01:43:45;;;;;;;19.33;7.93;;;2.50;99.90;;;;;;4991608;28;20022;-80
2022/03/27 01:46:11;;;;;;;20.20;7.25;;;2.50;99.90;;;;;;4993991;28;20019;-78
2022/03/27 01:48:37;;;;;;;25.48;7.82;;;2.50;99.90;;;;;;4990656;28;20061;-79
2022/03/27 01:51:03;;;;;;;23.92;9.32;;;2.60;99.90;;;;;;4989677;28;20078;-80
2022/03/27 01:53:29;;;;;;;22.80;8.27;;;2.60;99.90;;;;;;4990201;28;20254;-77
2022/03/27 01:55:54;;;;;;;18.55;7.10;;;2.60;99.90;;;;;;4992589;28;20027;-77
2022/03/27 01:58:21;;;;;;;19.08;7.30;;;2.50;99.90;;;;;;4991131;28;20034;-79
2022/03/27 02:00:47;;;;;;;15.85;6.65;;;2.50;99.90;;;;;;4991930;28;20015;-78
2022/03/27 02:03:12;;;;;;;15.57;6.63;;;2.40;99.90;;;;;;4989995;28;20509;-77
2022/03/27 02:05:38;;;;;;;20.65;7.55;;;2.40;99.90;;;;;;4989837;28;20042;-78
2022/03/27 02:08:04;;;;;;;22.35;8.15;;;2.40;99.90;;;;;;4987494;28;20105;-75
2022/03/27 02:10:30;;;;;;;26.05;7.15;;;2.30;99.90;;;;;;4988956;28;20015;-78
2022/03/27 02:12:56;;;;;;;20.88;7.95;;;2.30;99.90;;;;;;4988643;28;20090;-81
2022/03/27 02:15:23;;;;;;;21.48;7.07;;;2.20;99.90;;;;;;4989724;28;20034;-80
2022/03/27 02:17:49;;;;;;;19.58;6.70;;;2.10;99.90;;;;;;4989178;28;20135;-79
2022/03/27 02:20:15;;;;;;;18.45;7.18;;;2.20;99.90;;;;;;4971495;28;20038;-80
2022/03/27 02:22:41;;;;;;;17.95;6.97;;;2.30;99.90;;;;;;4992755;28;20055;-82
2022/03/27 02:25:07;;;;;;;17.30;6.50;;;2.20;99.90;;;;;;4990296;28;20007;-78
2022/03/27 02:27:33;;;;;;;15.68;5.97;;;2.10;99.90;;;;;;4992878;28;20023;-78
2022/03/27 02:29:59;;;;;;;18.77;7.80;;;2.20;99.90;;;;;;4988869;28;20031;-77
2022/03/27 02:32:24;;;;;;;15.90;7.22;;;2.30;99.90;;;;;;4992999;28;20062;-78
2022/03/27 02:34:50;;;;;;;19.17;6.80;;;2.20;99.90;;;;;;4992526;28;20039;-77
2022/03/27 02:37:16;;;;;;;20.70;8.75;;;2.20;99.90;;;;;;4991154;28;20042;-79
2022/03/27 02:39:44;;;;;;;23.05;7.20;;;2.30;99.90;;;;;;4976664;28;20166;-78
2022/03/27 02:42:10;;;;;;;16.70;6.97;;;2.20;99.90;;;;;;4971492;29;20179;-77
2022/03/27 02:44:37;;;;;;;19.00;6.80;;;2.00;99.90;;;;;;4960387;29;20035;-80
2022/03/27 02:47:05;;;;;;;26.10;8.20;;;2.00;99.90;;;;;;4976998;28;20034;-78
2022/03/27 02:49:32;;;;;;;21.55;7.28;;;1.90;99.90;;;;;;4986099;28;20034;-81
2022/03/27 02:51:57;;;;;;;19.17;7.60;;;1.90;99.90;;;;;;4996265;28;20103;-77
2022/03/27 02:54:24;;;;;;;17.88;7.32;;;1.80;99.90;;;;;;4997546;28;20015;-79
2022/03/27 02:56:50;;;;;;;17.25;6.85;;;1.70;99.90;;;;;;4990083;28;20475;-78
2022/03/27 02:59:19;;;;;;;19.55;7.25;;;1.70;99.90;;;;;;4974505;28;20027;-78
2022/03/27 03:01:46;;;;;;;18.92;7.80;;;1.60;99.90;;;;;;4991151;28;20027;-77
2022/03/27 03:04:13;;;;;;;17.77;7.50;;;1.80;99.90;;;;;;4990364;28;20022;-78
2022/03/27 03:06:43;;;;;;;16.92;6.60;;;1.80;99.90;;;;;;4989340;28;20038;-78
2022/03/27 03:09:10;;;;;;;21.98;7.80;;;1.80;99.90;;;;;;4989738;28;20066;-78
2022/03/27 03:11:36;;;;;;;18.27;6.72;;;1.70;99.90;;;;;;4991185;28;20031;-79
2022/03/27 03:14:02;;;;;;;18.15;6.70;;;1.70;99.90;;;;;;4989370;28;20030;-77
2022/03/27 03:16:29;;;;;;;16.55;6.38;;;1.70;99.90;;;;;;4954033;29;20030;-78
2022/03/27 03:18:55;;;;;;;17.63;6.85;;;1.70;99.90;;;;;;4970172;29;20358;-78
2022/03/27 03:21:21;;;;;;;20.15;6.72;;;1.80;99.90;;;;;;4972478;29;20034;-79
2022/03/27 03:23:47;;;;;;;18.63;6.93;;;1.80;99.90;;;;;;4954419;28;20043;-81
2022/03/27 03:26:13;;;;;;;17.50;6.07;;;1.80;99.90;;;;;;4972711;29;20022;-79
2022/03/27 03:28:39;;;;;;;17.60;6.97;;;1.80;99.90;;;;;;4973115;29;20055;-78
2022/03/27 03:31:05;;;;;;;16.27;6.47;;;4.40;99.90;;;;;;4974362;28;20007;-79
2022/03/27 03:33:32;;;;;;;24.80;6.45;;;2.00;99.90;;;;;;4973804;29;20055;-78
2022/03/27 03:35:57;;;;;;;15.93;5.88;;;2.00;99.90;;;;;;4970700;29;20019;-78
2022/03/27 03:38:23;;;;;;;13.82;6.30;;;2.10;99.90;;;;;;4955725;29;20042;-77
2022/03/27 03:40:49;;;;;;;19.67;7.22;;;2.00;99.90;;;;;;4974194;29;20030;-79
2022/03/27 03:43:15;;;;;;;19.58;6.45;;;2.00;99.90;;;;;;4973050;28;20038;-80
2022/03/27 03:45:42;;;;;;;17.17;7.30;;;2.00;99.90;;;;;;4975520;29;20019;-79
2022/03/27 03:48:08;;;;;;;18.25;7.10;;;2.00;99.90;;;;;;4981083;29;20083;-79
2022/03/27 03:50:35;;;;;;;20.00;7.60;;;1.90;99.90;;;;;;4979115;28;20039;-78
2022/03/27 03:53:02;;;;;;;15.13;6.70;;;1.90;99.90;;;;;;4975430;29;20035;-79
2022/03/27 03:55:29;;;;;;;18.00;6.85;;;2.00;99.90;;;;;;4975550;28;20039;-77
2022/03/27 03:57:56;;;;;;;16.40;6.88;;;2.00;99.90;;;;;;4975282;29;20039;-81
2022/03/27 04:00:23;;;;;;;16.30;6.32;;;2.00;99.90;;;;;;4973773;29;20018;-79
2022/03/27 04:02:49;;;;;;;21.23;7.13;;;2.00;99.90;;;;;;4982005;29;20042;-80
2022/03/27 04:05:15;;;;;;;17.23;6.38;;;1.90;99.90;;;;;;4964351;28;20027;-78
2022/03/27 04:07:42;;;;;;;19.83;6.70;;;1.80;99.90;;;;;;4975019;29;20027;-77
2022/03/27 04:10:08;;;;;;;17.45;7.07;;;1.80;99.90;;;;;;4975154;29;20024;-78
2022/03/27 04:12:34;;;;;;;15.43;5.93;;;1.90;99.90;;;;;;4973597;29;20027;-78
2022/03/27 04:14:59;;;;;;;17.08;6.60;;;1.90;99.90;;;;;;4970098;29;20120;-78
2022/03/27 04:17:25;;;;;;;15.95;6.72;;;1.80;99.90;;;;;;4973440;29;20003;-78
2022/03/27 04:19:51;;;;;;;18.50;7.07;;;1.80;99.90;;;;;;4973504;28;20027;-78
2022/03/27 04:22:16;;;;;;;17.05;6.53;;;1.60;99.90;;;;;;4973245;29;20440;-78
2022/03/27 04:24:42;;;;;;;19.20;7.05;;;1.60;99.90;;;;;;4973139;29;20027;-78
2022/03/27 04:27:08;;;;;;;17.20;5.95;;;1.60;99.90;;;;;;4974320;29;20360;-78
2022/03/27 04:29:34;;;;;;;17.23;7.80;;;1.70;99.90;;;;;;4974509;29;20473;-78
2022/03/27 04:31:59;;;;;;;18.08;6.68;;;1.90;99.90;;;;;;4974457;29;20267;-79
2022/03/27 04:34:25;;;;;;;14.02;5.90;;;1.90;99.90;;;;;;4956984;29;20106;-80
2022/03/27 04:36:52;;;;;;;20.88;6.95;;;1.80;99.90;;;;;;4973716;28;20011;-78
2022/03/27 04:39:18;;;;;;;15.02;5.88;;;1.80;99.90;;;;;;4974668;29;20027;-79
2022/03/27 04:41:46;;;;;;;19.05;7.30;;;1.80;99.90;;;;;;4975144;29;20044;-77
2022/03/27 04:44:12;;;;;;;17.02;6.05;;;1.70;99.90;;;;;;4955684;29;20018;-78
2022/03/27 04:46:38;;;;;;;21.35;6.78;;;1.50;99.90;;;;;;4972833;29;20027;-78
2022/03/27 04:49:03;;;;;;;16.52;6.32;;;1.30;99.90;;;;;;4973610;28;20030;-78
2022/03/27 04:51:30;;;;;;;17.95;8.23;;;1.20;99.90;;;;;;4957085;29;20027;-74
2022/03/27 04:53:56;;;;;;;28.20;7.55;;;1.30;99.90;;;;;;4974231;28;20007;-78
2022/03/27 04:56:22;;;;;;;14.73;6.32;;;1.40;99.90;;;;;;4972559;29;20038;-78
2022/03/27 04:58:47;;;;;;;17.85;6.47;;;1.30;99.90;;;;;;4973066;29;20032;-78
2022/03/27 05:01:14;;;;;;;14.05;5.68;;;1.20;99.90;;;;;;4972892;28;20026;-78
2022/03/27 05:03:39;;;;;;;14.15;6.18;;;1.00;99.90;;;;;;4972704;28;20054;-78
2022/03/27 05:06:05;;;;;;;16.90;6.20;;;0.90;99.90;;;;;;4955879;29;20047;-80
2022/03/27 05:08:33;;;;;;;16.88;5.65;;;0.80;99.90;;;;;;4974287;29;20015;-79
2022/03/27 05:10:58;;;;;;;15.23;5.95;;;0.80;99.90;;;;;;4971595;28;20519;-78
2022/03/27 05:13:24;;;;;;;17.50;6.40;;;0.70;99.90;;;;;;4972510;29;20031;-79
2022/03/27 05:15:50;;;;;;;17.98;5.97;;;0.70;99.90;;;;;;4971347;29;20031;-79
2022/03/27 05:18:17;;;;;;;24.05;6.35;;;0.70;99.90;;;;;;4973802;29;20016;-78
2022/03/27 05:20:43;;;;;;;17.42;6.28;;;0.70;99.90;;;;;;4972205;29;20019;-78
2022/03/27 05:23:12;;;;;;;17.15;6.18;;;0.70;99.90;;;;;;4971422;29;20070;-79
2022/03/27 05:25:41;;;;;;;18.33;6.03;;;0.70;99.90;;;;;;4972395;29;20087;-79
2022/03/27 05:28:08;;;;;;;19.63;7.38;;;0.70;99.90;;;;;;4974456;28;20035;-77
2022/03/27 05:30:34;;;;;;;15.98;7.18;;;0.60;99.90;;;;;;4973061;29;20026;-78
2022/03/27 05:33:00;;;;;;;15.57;6.68;;;0.60;99.90;;;;;;4972350;29;20023;-78
2022/03/27 05:35:26;;;;;;;18.55;6.78;;;0.60;99.90;;;;;;4972604;28;20027;-78
2022/03/27 05:37:52;;;;;;;16.50;6.07;;;0.50;99.90;;;;;;4957073;29;20043;-79
2022/03/27 05:40:20;;;;;;;13.73;6.00;;;0.60;99.90;;;;;;4973753;28;20047;-78
2022/03/27 05:42:47;;;;;;;15.35;5.70;;;0.60;99.90;;;;;;4956356;29;20015;-79
2022/03/27 05:45:13;;;;;;;13.00;6.38;;;0.70;99.90;;;;;;4973227;28;20440;-79
2022/03/27 05:47:43;;;;;;;18.50;7.80;;;0.80;99.90;;;;;;4959133;29;20047;-79
2022/03/27 05:50:09;;;;;;;;;;;0.90;99.90;;;;;;4978303;28;20048;-80
2022/03/27 05:52:36;;;;;;;26.10;7.70;;;1.10;99.90;;;;;;4960795;29;19911;-79
2022/03/27 05:55:02;;;;;;;18.88;6.88;;;1.20;99.90;;;;;;4974812;29;20035;-78
2022/03/27 05:57:28;;;;;;;27.58;7.82;;;1.30;99.90;;;;;;4961992;29;20035;-81
2022/03/27 05:59:55;;;;;;;19.38;7.85;;;1.30;99.90;;;;;;4979155;28;20084;-78
2022/03/27 06:02:21;;;;;;;16.30;6.45;;;1.30;99.90;;;;;;4962118;28;20011;-78
2022/03/27 06:04:47;;;;;;;20.40;6.57;;;1.40;99.90;;;;;;4961889;28;20077;-78
2022/03/27 06:07:12;;;;;;;21.63;8.00;;;1.40;99.90;;;;;;4978310;29;20011;-80
2022/03/27 06:09:39;;;;;;;16.05;5.75;;;1.40;99.90;;;;;;4978515;29;20015;-78
2022/03/27 06:12:05;;;;;;;21.90;6.18;;;1.40;99.90;;;;;;4978949;28;20011;-80
2022/03/27 06:14:31;;;;;;;22.65;6.75;;;1.60;99.90;;;;;;4961645;29;20034;-78
2022/03/27 06:16:57;;;;;;;18.23;6.75;;;2.00;99.90;;;;;;4973953;29;20071;-79
2022/03/27 06:19:23;;;;;;;18.98;6.53;;;2.30;99.90;;;;;;4971517;29;20063;-79
2022/03/27 06:21:49;;;;;;;15.98;6.57;;;2.50;99.90;;;;;;4969943;29;20035;-78
2022/03/27 06:24:15;;;;;;;19.60;5.97;;;2.80;99.90;;;;;;4957156;29;20099;-82
2022/03/27 06:26:41;;;;;;;13.88;5.50;;;3.10;99.90;;;;;;4970822;29;20024;-78
2022/03/27 06:29:10;;;;;;;14.38;5.20;;;3.40;99.90;;;;;;4967347;29;20038;-79
2022/03/27 06:31:37;;;;;;;20.63;7.80;;;3.90;99.90;;;;;;4967775;29;20023;-79
2022/03/27 06:34:03;;;;;;;17.27;6.53;;;4.60;99.90;;;;;;4951722;29;20524;-82
2022/03/27 06:36:29;;;;;;;20.38;7.93;;;5.00;99.90;;;;;;4967912;29;20034;-78
2022/03/27 06:38:55;;;;;;;19.52;6.32;;;5.20;99.90;;;;;;4969307;29;20061;-80
2022/03/27 06:41:20;;;;;;;19.33;6.95;;;5.10;99.90;;;;;;4970629;29;20061;-79
2022/03/27 06:43:46;;;;;;;16.88;7.97;;;5.20;99.90;;;;;;4966671;29;20031;-80
2022/03/27 06:46:16;;;;;;;15.82;7.65;;;5.20;99.90;;;;;;4967464;29;20019;-78
2022/03/27 06:48:47;;;;;;;22.83;11.02;;;5.10;99.90;;;;;;4969316;29;20027;-78
2022/03/27 06:51:36;;;;;;;20.02;10.85;;;5.20;99.90;;;;;;4968866;29;20023;-78
2022/03/27 06:54:03;;;;;;;;;;;5.30;99.90;;;;;;4974248;29;20027;-83
2022/03/27 06:56:28;;;;;;;14.85;6.30;;;5.40;99.90;;;;;;4973657;29;19906;-78
2022/03/27 06:58:54;;;;;;;17.55;6.55;;;5.60;99.90;;;;;;4966749;28;20507;-80
2022/03/27 07:04:05;;;;;;;17.15;7.25;;;5.70;99.90;;;;;;4971563;29;20054;-80
2022/03/27 07:06:31;;;;;;;17.88;6.72;;;5.80;99.90;;;;;;4964451;28;20038;-80
2022/03/27 07:08:57;;;;;;;13.65;6.97;;;5.90;99.90;;;;;;4965761;28;20129;-81
2022/03/27 07:11:22;;;;;;;21.17;6.88;;;6.00;99.90;;;;;;4970961;29;20050;-81
2022/03/27 07:13:48;;;;;;;12.55;6.18;;;6.20;99.90;;;;;;4967708;29;20066;-79
2022/03/27 07:16:16;;;;;;;20.02;7.70;;;6.40;99.90;;;;;;4969533;29;20012;-81
2022/03/27 07:18:42;;;;;;;20.38;6.63;;;6.70;99.90;;;;;;4966282;29;20123;-79
2022/03/27 07:21:08;;;;;;;18.08;7.05;;;7.00;99.90;;;;;;4970920;29;20007;-81
2022/03/27 07:23:53;;;;;;;17.10;6.80;;;7.30;99.90;;;;;;4977402;29;20055;-80
2022/03/27 07:26:22;;;;;;;18.40;7.20;;;7.60;98.40;;;;;;4974277;28;20027;-82
2022/03/27 07:29:38;;;;;;;20.30;6.25;;;7.60;97.70;;;;;;4976266;29;20103;-85
2022/03/27 07:32:12;;;;;;;15.23;5.88;;;7.80;94.80;;;;;;4961186;29;20058;-84
2022/03/27 07:34:40;;;;;;;21.30;7.97;;;7.90;95.90;;;;;;4952216;29;20063;-83
2022/03/27 07:37:22;;;;;;;20.60;7.95;;;8.10;93.60;;;;;;4977985;28;20087;-79
2022/03/27 07:39:47;;;;;;;24.02;8.55;;;8.30;91.30;;;;;;4977518;28;20027;-80
2022/03/27 07:42:13;;;;;;;18.55;8.15;;;8.40;90.80;;;;;;4975909;28;20085;-80
2022/03/27 07:44:51;;;;;;;16.88;7.03;;;8.50;90.40;;;;;;4979521;29;20011;-81
2022/03/27 07:47:18;;;;;;;21.02;7.32;;;8.70;89.60;;;;;;4979097;29;20007;-82
2022/03/27 07:49:44;;;;;;;17.45;7.15;;;9.10;87.30;;;;;;4972550;28;20026;-79
2022/03/27 07:52:11;;;;;;;18.20;7.47;;;9.20;85.50;;;;;;4959146;29;20035;-79
2022/03/27 07:54:41;;;;;;;23.50;8.07;;;9.10;87.00;;;;;;4976698;29;20042;-81
2022/03/27 07:57:10;;;;;;;19.67;6.65;;;9.20;85.50;;;;;;4974466;28;20299;-80
2022/03/27 07:59:38;;;;;;;21.73;6.60;;;9.40;83.10;;;;;;4976427;28;20019;-82
2022/03/27 08:02:27;;;;;;;21.40;7.77;;;9.60;81.60;;;;;;4966811;28;20023;-81
2022/03/27 08:05:00;;;;;;;17.40;8.80;;;9.70;80.20;;;;;;4982535;28;20007;-81
2022/03/27 08:07:27;;;;;;;20.45;8.27;;;9.70;80.10;;;;;;4981972;28;20039;-81
2022/03/27 08:10:15;;;;;;;26.70;8.27;;;10.00;79.00;;;;;;4982191;28;20071;-81
2022/03/27 08:12:42;;;;;;;16.13;7.15;;;10.20;78.90;;;;;;4979692;28;20047;-83
2022/03/27 08:15:09;;;;;;;20.70;7.95;;;10.50;74.80;;;;;;4975276;29;20027;-82
2022/03/27 08:17:36;;;;;;;23.48;9.63;;;10.50;75.10;;;;;;4968790;29;20095;-82
2022/03/27 08:20:10;;;;;;;21.02;8.52;;;10.70;74.90;;;;;;4977506;29;20043;-81
2022/03/27 08:22:44;;;;;;;15.23;7.38;;;10.70;74.80;;;;;;4984468;28;20054;-81
2022/03/27 08:28:24;;;;;;;22.10;8.18;;;10.80;73.80;;;;;;4999783;28;20042;-82
2022/03/27 08:30:54;;;;;;;22.35;8.70;;;11.20;73.00;;;;;;4997080;28;20106;-85
2022/03/27 08:33:26;;;;;;;19.30;8.13;;;11.30;72.00;;;;;;4977092;28;20045;-85
2022/03/27 08:35:52;;;;;;;20.40;7.97;;;11.60;71.90;;;;;;4990833;28;20669;-80
2022/03/27 08:38:18;;;;;;;19.00;7.50;;;11.70;70.20;;;;;;4987276;28;20110;-81
2022/03/27 08:40:45;;;;;;;23.25;7.75;;;12.30;69.80;;;;;;4984791;28;20034;-80
2022/03/27 08:43:17;;;;;;;22.83;9.10;;;12.30;68.80;;;;;;4991984;28;20027;-82
2022/03/27 08:45:45;;;;;;;21.38;8.20;;;12.60;67.40;;;;;;4990395;28;20030;-82
2022/03/27 08:48:17;;;;;;;18.35;8.57;;;13.10;66.90;;;;;;4995587;28;20046;-81
2022/03/27 08:50:50;;;;;;;21.30;8.57;;;12.90;66.40;;;;;;4987147;28;20054;-85
2022/03/27 08:53:38;;;;;;;18.55;8.18;;;12.50;67.00;;;;;;4986490;28;20094;-84
2022/03/27 08:56:10;;;;;;;22.35;7.38;;;12.60;66.00;;;;;;4986917;28;20027;-83
2022/03/27 08:58:41;;;;;;;21.17;9.73;;;12.80;64.80;;;;;;4984359;28;20070;-83
2022/03/27 09:01:08;;;;;;;18.60;8.52;;;13.10;62.30;;;;;;4991644;28;20022;-83
2022/03/27 09:03:34;;;;;;;21.30;8.45;;;13.30;62.30;;;;;;4969787;28;20030;-83
2022/03/27 09:06:04;;;;;;;19.25;8.55;;;13.00;62.20;;;;;;4971072;28;20027;-84
2022/03/27 09:08:30;;;;;;;23.92;8.93;;;13.00;62.70;;;;;;4988985;28;20038;-83
2022/03/27 09:11:16;;;;;;;23.38;9.05;;;12.90;63.10;;;;;;4973189;28;20022;-84
2022/03/27 09:13:47;;;;;;;19.67;7.60;;;12.90;63.30;;;;;;4973836;28;20063;-84
2022/03/27 09:16:16;;;;;;;21.27;7.97;;;13.00;63.80;;;;;;4973532;28;20030;-85
2022/03/27 09:18:52;;;;;;;19.45;8.10;;;13.10;62.70;;;;;;4957793;28;20043;-77
2022/03/27 09:21:27;;;;;;;20.10;8.32;;;13.00;63.30;;;;;;4971479;28;20479;-84
2022/03/27 09:24:01;;;;;;;23.67;8.85;;;13.10;61.90;;;;;;4985009;28;20085;-84
2022/03/27 09:26:28;;;;;;;25.33;10.85;;;13.10;62.20;;;;;;4985994;28;20042;-84
2022/03/27 09:29:08;;;;;;;21.90;8.57;;;13.10;61.00;;;;;;4986285;28;20230;-84
2022/03/27 09:31:33;;;;;;;18.67;8.60;;;13.10;59.00;;;;;;4973679;28;20038;-78
2022/03/27 09:34:01;;;;;;;26.48;9.65;;;13.20;59.40;;;;;;4968333;28;20042;-78
2022/03/27 09:36:29;;;;;;;23.92;9.52;;;13.50;59.00;;;;;;4987805;28;20042;-85
2022/03/27 09:38:59;;;;;;;24.98;8.95;;;13.60;60.40;;;;;;4988184;28;20039;-85
2022/03/27 09:41:42;;;;;;;23.35;9.27;;;13.70;58.30;;;;;;4985628;28;20039;-84
2022/03/27 09:44:17;;;;;;;25.40;9.52;;;13.70;57.80;;;;;;4986670;28;20034;-84
2022/03/27 09:46:58;;;;;;;23.83;10.27;;;13.50;58.20;;;;;;4985812;28;20031;-84
2022/03/27 09:49:38;;;;;;;26.10;10.68;;;13.80;57.00;;;;;;4984004;28;20031;-84
2022/03/27 09:52:12;;;;;;;30.35;10.63;;;14.00;59.20;;;;;;4981679;28;20083;-84
2022/03/27 09:55:05;;;;;;;24.05;10.23;;;14.10;57.70;;;;;;4979363;28;20411;-80
2022/03/27 09:57:42;;;;;;;30.63;10.20;;;14.30;56.50;;;;;;4976234;28;20093;-80
2022/03/27 10:00:11;;;;;;;24.38;9.60;;;14.00;57.00;;;;;;4978596;28;20029;-79
2022/03/27 10:02:38;;;;;;;22.15;10.27;;;14.20;59.00;;;;;;4969585;28;20042;-78
2022/03/27 10:05:06;;;;;;;22.38;10.57;;;14.30;56.10;;;;;;4966546;28;20030;-78
2022/03/27 10:07:34;;;;;;;27.55;13.02;;;14.50;56.40;;;;;;4956090;28;20034;-79
2022/03/27 10:10:00;;;;;;;25.45;10.90;;;14.40;55.30;;;;;;4969559;28;20046;-82
2022/03/27 10:12:31;;;;;;;22.73;9.60;;;14.30;57.60;;;;;;4972036;28;20023;-81
2022/03/27 10:15:05;;;;;;;25.95;11.45;;;14.50;56.70;;;;;;4978177;28;20027;-81
2022/03/27 10:17:36;;;;;;;23.33;9.95;;;14.50;55.80;;;;;;4974876;28;20042;-81
2022/03/27 10:20:08;;;;;;;25.85;10.38;;;14.40;54.60;;;;;;4960256;28;20038;-82
2022/03/27 10:22:39;;;;;;;21.55;10.02;;;14.40;55.00;;;;;;4972309;28;20074;-82
2022/03/27 10:25:08;;;;;;;28.20;11.00;;;14.60;56.90;;;;;;4976917;28;20038;-83
2022/03/27 10:27:39;;;;;;;29.27;10.60;;;14.50;55.10;;;;;;4980432;28;20027;-82
2022/03/27 10:30:07;;;;;;;20.58;9.65;;;14.60;54.80;;;;;;4981303;28;20031;-84
2022/03/27 10:32:34;;;;;;;24.30;10.02;;;14.50;54.10;;;;;;4981443;28;20027;-83
2022/03/27 10:35:24;;;;;;;20.00;9.18;;;14.50;55.00;;;;;;4985028;28;20038;-84
2022/03/27 10:38:19;;;;;;;26.25;9.25;;;14.60;56.20;;;;;;4984228;28;20035;-84
2022/03/27 10:41:10;;;;;;;25.23;9.73;;;14.80;55.50;;;;;;4983019;28;20479;-83
2022/03/27 10:44:20;;;;;;;22.60;9.82;;;14.80;56.20;;;;;;4985762;28;20030;-83
2022/03/27 10:47:23;;;;;;;28.15;10.27;;;14.90;55.10;;;;;;4984950;28;20023;-84
2022/03/27 10:50:02;;;;;;;25.38;9.95;;;14.90;55.20;;;;;;4986647;28;20023;-83
2022/03/27 10:52:53;;;;;;;27.60;12.65;;;15.20;55.00;;;;;;4986246;28;20023;-82
2022/03/27 10:55:20;;;;;;;28.05;11.95;;;15.20;54.70;;;;;;4987011;28;20061;-84
2022/03/27 10:57:53;;;;;;;25.05;9.85;;;15.20;53.50;;;;;;4988451;28;20043;-84
2022/03/27 11:01:14;;;;;;;26.90;11.32;;;15.20;53.80;;;;;;4987893;28;20019;-84
2022/03/27 11:04:14;;;;;;;25.95;11.00;;;15.20;53.90;;;;;;4921856;28;20035;-84
2022/03/27 11:06:45;;;;;;;25.00;9.65;;;15.30;55.80;;;;;;4971281;28;20027;-84
2022/03/27 11:09:35;;;;;;;21.70;10.77;;;15.40;53.60;;;;;;4972284;28;20049;-84
2022/03/27 11:12:29;;;;;;;24.35;9.73;;;15.40;52.80;;;;;;4983499;28;20027;-84
2022/03/27 11:15:05;;;;;;;21.60;10.30;;;15.60;52.30;;;;;;4985258;28;20027;-84
2022/03/27 11:18:10;;;;;;;22.45;9.95;;;15.70;51.90;;;;;;4972070;28;20061;-84
2022/03/27 11:20:35;;;;;;;27.70;11.40;;;16.00;53.00;;;;;;4971931;28;20133;-83
2022/03/27 11:23:25;;;;;;;24.90;11.40;;;16.10;53.60;;;;;;4978899;28;20055;-81
2022/03/27 11:25:50;;;;;;;24.10;10.40;;;15.90;51.70;;;;;;4983637;28;20031;-81
2022/03/27 11:28:20;;;;;;;24.52;10.45;;;16.10;52.40;;;;;;4989589;28;20061;-85
2022/03/27 11:30:55;;;;;;;25.45;11.10;;;18.10;52.80;;;;;;4975790;28;20019;-85
2022/03/27 11:34:07;;;;;;;27.27;10.52;;;16.30;52.20;;;;;;4978416;28;20019;-86
2022/03/27 11:37:22;;;;;;;21.95;10.15;;;12.90;50.10;;;;;;4996531;28;20015;-85
2022/03/27 11:40:34;;;;;;;22.40;9.43;;;17.60;51.80;;;;;;4974847;28;20029;-87
2022/03/27 11:43:32;;;;;;;23.52;9.88;;;16.30;51.80;;;;;;4966223;29;20029;-84
2022/03/27 11:45:59;;;;;;;23.98;10.75;;;16.30;51.90;;;;;;4971039;28;20031;-82
2022/03/27 11:48:26;;;;;;;23.15;10.20;;;16.60;49.70;;;;;;4965708;29;20030;-80
2022/03/27 11:50:54;;;;;;;21.65;9.02;;;16.60;49.90;;;;;;4943775;29;20063;-80
2022/03/27 11:53:34;;;;;;;23.42;10.43;;;16.90;50.10;;;;;;4963531;29;20109;-80
2022/03/27 11:56:08;;;;;;;23.60;10.43;;;16.90;50.40;;;;;;4965289;29;20015;-81
2022/03/27 11:58:39;;;;;;;21.73;10.38;;;17.10;50.60;;;;;;4957019;28;20039;-79
2022/03/27 12:01:08;;;;;;;25.02;10.32;;;17.30;50.10;;;;;;4970491;28;20030;-80
2022/03/27 12:03:35;;;;;;;26.75;10.90;;;17.60;49.40;;;;;;4971364;28;20050;-79
2022/03/27 12:06:09;;;;;;;20.83;11.00;;;18.00;48.40;;;;;;4972158;28;20027;-78
2022/03/27 12:08:38;;;;;;;23.85;10.30;;;18.70;46.80;;;;;;4965697;28;20078;-80
2022/03/27 12:11:06;;;;;;;21.20;9.23;;;18.70;45.40;;;;;;4970603;28;20109;-79
2022/03/27 12:13:43;;;;;;;18.52;10.65;;;19.70;46.60;;;;;;4952964;28;20079;-80
2022/03/27 12:16:21;;;;;;;23.88;11.02;;;20.00;44.50;;;;;;4964785;28;20447;-80
2022/03/27 12:18:49;;;;;;;24.75;10.63;;;20.20;43.30;;;;;;4952918;28;20130;-82
2022/03/27 12:21:20;;;;;;;20.75;11.27;;;20.60;43.10;;;;;;4953715;28;20262;-83
2022/03/27 12:24:02;;;;;;;20.60;10.23;;;20.70;43.60;;;;;;4969804;28;20683;-82
2022/03/27 12:32:13;;;;;;;20.20;11.02;;;21.10;41.10;;;;;;4970711;28;20104;-82
2022/03/27 12:34:51;;;;;;;20.00;10.23;;;21.10;40.10;;;;;;4953110;28;20391;-81
2022/03/27 12:37:25;;;;;;;17.30;9.00;;;21.40;40.60;;;;;;4952924;28;20082;-82
2022/03/27 12:39:51;;;;;;;25.73;12.05;;;21.80;39.90;;;;;;4970349;28;20065;-81
2022/03/27 12:42:46;;;;;;;20.55;10.43;;;21.50;41.50;;;;;;4953864;28;20031;-82
2022/03/27 12:45:21;;;;;;;20.35;9.75;;;22.00;40.00;;;;;;4961378;28;20046;-83
2022/03/27 12:47:57;;;;;;;21.90;9.88;;;21.20;39.70;;;;;;4953393;28;20384;-83
2022/03/27 12:50:34;;;;;;;20.98;10.75;;;21.40;39.90;;;;;;4952974;28;20022;-82
2022/03/27 12:53:04;;;;;;;22.20;11.25;;;21.50;40.20;;;;;;4952608;28;20055;-79
2022/03/27 12:55:51;;;;;;;17.67;9.65;;;22.10;40.10;;;;;;4969906;28;20026;-83
2022/03/27 12:58:19;;;;;;;24.17;11.55;;;23.10;39.70;;;;;;4968330;28;20034;-90
2022/03/27 13:01:10;;;;;;;22.20;10.63;;;22.80;38.70;;;;;;4961914;28;20027;-82
2022/03/27 13:03:44;;;;;;;21.20;10.32;;;22.10;39.40;;;;;;4958737;28;20023;-82
2022/03/27 13:06:10;;;;;;;21.92;10.63;;;21.90;38.70;;;;;;4969287;28;20030;-82
2022/03/27 13:08:41;;;;;;;21.67;11.65;;;21.60;39.00;;;;;;4969453;28;20050;-84
2022/03/27 13:11:10;;;;;;;20.05;9.88;;;21.80;39.00;;;;;;4952994;28;20130;-83